createdAt,value
2024-03-22T00:00:09.181Z,1005.84
2024-03-22T00:00:19.162Z,1005.81
2024-03-22T00:00:29.153Z,1005.82
2024-03-22T00:00:39.209Z,1005.81
2024-03-22T00:00:59.135Z,1005.77
2024-03-22T00:01:09.170Z,1005.76
2024-03-22T00:01:19.126Z,1005.77
2024-03-22T00:01:29.192Z,1005.80
2024-03-22T00:01:40.299Z,1005.78
2024-03-22T00:01:49.139Z,1005.80
2024-03-22T00:02:09.133Z,1005.80
2024-03-22T00:02:19.129Z,1005.79
2024-03-22T00:02:29.141Z,1005.75
2024-03-22T00:02:40.130Z,1005.77
2024-03-22T00:02:49.142Z,1005.82
2024-03-22T00:02:59.128Z,1005.79
2024-03-22T00:03:19.165Z,1005.77
2024-03-22T00:03:29.114Z,1005.79
2024-03-22T00:03:39.122Z,1005.79
2024-03-22T00:03:49.139Z,1005.79
2024-03-22T00:03:59.185Z,1005.79
2024-03-22T00:04:09.123Z,1005.80
2024-03-22T00:04:19.172Z,1005.79
2024-03-22T00:04:40.076Z,1005.79
2024-03-22T00:04:50.025Z,1005.82
2024-03-22T00:04:59.162Z,1005.79
2024-03-22T00:05:09.145Z,1005.78
2024-03-22T00:05:19.104Z,1005.85
2024-03-22T00:05:29.106Z,1005.81
2024-03-22T00:05:49.126Z,1005.84
2024-03-22T00:05:59.115Z,1005.81
2024-03-22T00:06:09.105Z,1005.82
2024-03-22T00:06:19.099Z,1005.80
2024-03-22T00:06:29.102Z,1005.81
2024-03-22T00:06:39.148Z,1005.78
2024-03-22T00:06:50.024Z,1005.79
2024-03-22T00:07:09.140Z,1005.80
2024-03-22T00:07:19.095Z,1005.78
2024-03-22T00:07:29.109Z,1005.75
2024-03-22T00:07:39.208Z,1005.78
2024-03-22T00:07:49.110Z,1005.78
2024-03-22T00:07:59.133Z,1005.79
2024-03-22T00:08:19.134Z,1005.76
2024-03-22T00:08:29.116Z,1005.79
2024-03-22T00:08:39.095Z,1005.79
2024-03-22T00:08:49.113Z,1005.73
2024-03-22T00:08:59.159Z,1005.75
2024-03-22T00:09:09.131Z,1005.77
2024-03-22T00:09:30.028Z,1005.78
2024-03-22T00:09:40.032Z,1005.78
2024-03-22T00:09:49.084Z,1005.75
2024-03-22T00:09:59.089Z,1005.76
2024-03-22T00:10:09.091Z,1005.75
2024-03-22T00:10:19.106Z,1005.77
2024-03-22T00:10:39.095Z,1005.77
2024-03-22T00:10:49.098Z,1005.76
2024-03-22T00:10:59.144Z,1005.81
2024-03-22T00:11:09.088Z,1005.81
2024-03-22T00:11:19.093Z,1005.79
2024-03-22T00:11:29.092Z,1005.78
2024-03-22T00:11:39.100Z,1005.83
2024-03-22T00:11:59.199Z,1005.83
2024-03-22T00:12:09.069Z,1005.82
2024-03-22T00:12:19.080Z,1005.84
2024-03-22T00:12:29.074Z,1005.87
2024-03-22T00:12:39.084Z,1005.84
2024-03-22T00:12:49.128Z,1005.82
2024-03-22T00:12:59.088Z,1005.87
2024-03-22T00:13:09.161Z,1005.81
2024-03-22T00:13:19.099Z,1005.88
2024-03-22T00:13:39.104Z,1005.83
2024-03-22T00:13:49.082Z,1005.82
2024-03-22T00:13:59.090Z,1005.85
2024-03-22T00:14:09.106Z,1005.89
2024-03-22T00:14:19.155Z,1005.86
2024-03-22T00:14:29.101Z,1005.87
2024-03-22T00:14:49.093Z,1005.88
2024-03-22T00:14:59.165Z,1005.89
2024-03-22T00:15:10.022Z,1005.84
2024-03-22T00:15:19.095Z,1005.81
2024-03-22T00:15:29.060Z,1005.85
2024-03-22T00:15:39.071Z,1005.82
2024-03-22T00:15:59.078Z,1005.78
2024-03-22T00:16:09.063Z,1005.76
2024-03-22T00:16:19.069Z,1005.74
2024-03-22T00:16:29.066Z,1005.78
2024-03-22T00:16:39.114Z,1005.77
2024-03-22T00:16:49.048Z,1005.76
2024-03-22T00:16:59.068Z,1005.72
2024-03-22T00:17:19.168Z,1005.74
2024-03-22T00:17:29.106Z,1005.78
2024-03-22T00:17:40.034Z,1005.77
2024-03-22T00:17:49.076Z,1005.76
2024-03-22T00:17:59.140Z,1005.71
2024-03-22T00:18:09.075Z,1005.75
2024-03-22T00:18:30.031Z,1005.72
2024-03-22T00:18:39.045Z,1005.79
2024-03-22T00:18:49.049Z,1005.73
2024-03-22T00:18:59.100Z,1005.78
2024-03-22T00:19:09.062Z,1005.76
2024-03-22T00:19:20.091Z,1005.75
2024-03-22T00:19:39.054Z,1005.79
2024-03-22T00:19:49.080Z,1005.77
2024-03-22T00:19:59.135Z,1005.76
2024-03-22T00:20:09.043Z,1005.81
2024-03-22T00:20:19.090Z,1005.80
2024-03-22T00:20:29.055Z,1005.83
2024-03-22T00:20:49.074Z,1005.81
2024-03-22T00:20:59.032Z,1005.82
2024-03-22T00:21:09.092Z,1005.83
2024-03-22T00:21:19.055Z,1005.82
2024-03-22T00:21:29.182Z,1005.80
2024-03-22T00:21:39.043Z,1005.79
2024-03-22T00:21:49.048Z,1005.82
2024-03-22T00:21:59.035Z,1005.81
2024-03-22T00:22:19.061Z,1005.84
2024-03-22T00:22:29.037Z,1005.80
2024-03-22T00:22:39.047Z,1005.78
2024-03-22T00:22:49.086Z,1005.78
2024-03-22T00:22:59.019Z,1005.77
2024-03-22T00:23:09.024Z,1005.80
2024-03-22T00:23:29.075Z,1005.84
2024-03-22T00:23:39.031Z,1005.81
2024-03-22T00:23:49.044Z,1005.81
2024-03-22T00:23:59.021Z,1005.85
2024-03-22T00:24:09.023Z,1005.78
2024-03-22T00:24:19.109Z,1005.83
2024-03-22T00:24:39.093Z,1005.81
2024-03-22T00:24:49.058Z,1005.79
2024-03-22T00:24:59.059Z,1005.80
2024-03-22T00:25:09.032Z,1005.79
2024-03-22T00:25:19.074Z,1005.79
2024-03-22T00:25:29.034Z,1005.79
2024-03-22T00:25:49.028Z,1005.74
2024-03-22T00:25:59.553Z,1005.77
2024-03-22T00:26:09.020Z,1005.73
2024-03-22T00:26:19.017Z,1005.74
2024-03-22T00:26:29.035Z,1005.77
2024-03-22T00:26:39.013Z,1005.76
2024-03-22T00:26:59.077Z,1005.75
2024-03-22T00:27:09.010Z,1005.80
2024-03-22T00:27:19.007Z,1005.77
2024-03-22T00:27:29.054Z,1005.73
2024-03-22T00:27:39.117Z,1005.76
2024-03-22T00:27:49.233Z,1005.79
2024-03-22T00:28:09.021Z,1005.79
2024-03-22T00:28:19.043Z,1005.78
2024-03-22T00:28:29.022Z,1005.76
2024-03-22T00:28:38.999Z,1005.82
2024-03-22T00:28:49.019Z,1005.75
2024-03-22T00:28:59.027Z,1005.75
2024-03-22T00:29:19.123Z,1005.77
2024-03-22T00:29:29.003Z,1005.77
2024-03-22T00:29:39.529Z,1005.75
2024-03-22T00:29:49.033Z,1005.75
2024-03-22T00:29:58.988Z,1005.78
2024-03-22T00:30:08.995Z,1005.73
2024-03-22T00:30:28.999Z,1005.77
2024-03-22T00:30:41.431Z,1005.77
2024-03-22T00:30:49.095Z,1005.74
2024-03-22T00:30:58.998Z,1005.77
2024-03-22T00:31:08.999Z,1005.76
2024-03-22T00:31:19.000Z,1005.70
2024-03-22T00:31:39.010Z,1005.75
2024-03-22T00:31:49.120Z,1005.77
2024-03-22T00:31:58.995Z,1005.72
2024-03-22T00:32:09.014Z,1005.74
2024-03-22T00:32:19.006Z,1005.74
2024-03-22T00:32:28.993Z,1005.74
2024-03-22T00:32:48.983Z,1005.74
2024-03-22T00:32:58.996Z,1005.75
2024-03-22T00:33:08.990Z,1005.70
2024-03-22T00:33:19.006Z,1005.69
2024-03-22T00:33:29.028Z,1005.73
2024-03-22T00:33:38.990Z,1005.70
2024-03-22T00:33:49.526Z,1005.68
2024-03-22T00:34:09.088Z,1005.72
2024-03-22T00:34:18.975Z,1005.72
2024-03-22T00:34:28.985Z,1005.69
2024-03-22T00:34:38.990Z,1005.66
2024-03-22T00:34:48.994Z,1005.72
2024-03-22T00:34:59.024Z,1005.65
2024-03-22T00:35:18.975Z,1005.67
2024-03-22T00:35:28.970Z,1005.67
2024-03-22T00:35:38.971Z,1005.67
2024-03-22T00:35:49.565Z,1005.66
2024-03-22T00:35:59.078Z,1005.65
2024-03-22T00:36:08.962Z,1005.68
2024-03-22T00:36:18.981Z,1005.69
2024-03-22T00:36:29.530Z,1005.69
2024-03-22T00:36:38.975Z,1005.69
2024-03-22T00:36:59.112Z,1005.65
2024-03-22T00:37:08.973Z,1005.67
2024-03-22T00:37:18.962Z,1005.66
2024-03-22T00:37:28.965Z,1005.68
2024-03-22T00:37:38.965Z,1005.69
2024-03-22T00:37:48.985Z,1005.63
2024-03-22T00:38:08.962Z,1005.68
2024-03-22T00:38:19.577Z,1005.68
2024-03-22T00:38:29.000Z,1005.64
2024-03-22T00:38:38.954Z,1005.67
2024-03-22T00:38:48.956Z,1005.69
2024-03-22T00:38:58.978Z,1005.64
2024-03-22T00:39:09.026Z,1005.65
2024-03-22T00:39:28.950Z,1005.66
2024-03-22T00:39:38.976Z,1005.64
2024-03-22T00:39:48.966Z,1005.65
2024-03-22T00:39:58.968Z,1005.67
2024-03-22T00:40:09.578Z,1005.66
2024-03-22T00:40:19.006Z,1005.64
2024-03-22T00:40:38.967Z,1005.59
2024-03-22T00:40:48.956Z,1005.67
2024-03-22T00:40:58.950Z,1005.68
2024-03-22T00:41:08.949Z,1005.58
2024-03-22T00:41:18.943Z,1005.65
2024-03-22T00:41:28.955Z,1005.65
2024-03-22T00:41:48.965Z,1005.64
2024-03-22T00:41:58.962Z,1005.65
2024-03-22T00:42:09.000Z,1005.62
2024-03-22T00:42:18.937Z,1005.64
2024-03-22T00:42:28.945Z,1005.64
2024-03-22T00:42:38.945Z,1005.61
2024-03-22T00:42:48.984Z,1005.59
2024-03-22T00:42:58.980Z,1005.62
2024-03-22T00:43:18.943Z,1005.59
2024-03-22T00:43:28.928Z,1005.66
2024-03-22T00:43:39.535Z,1005.61
2024-03-22T00:43:48.946Z,1005.62
2024-03-22T00:43:58.949Z,1005.60
2024-03-22T00:44:09.079Z,1005.62
2024-03-22T00:44:28.926Z,1005.61
2024-03-22T00:44:38.923Z,1005.57
2024-03-22T00:44:48.946Z,1005.61
2024-03-22T00:44:58.939Z,1005.62
2024-03-22T00:45:08.972Z,1005.65
2024-03-22T00:45:18.973Z,1005.61
2024-03-22T00:45:28.972Z,1005.60
2024-03-22T00:45:38.944Z,1005.63
2024-03-22T00:45:58.959Z,1005.62
2024-03-22T00:46:08.924Z,1005.60
2024-03-22T00:46:19.586Z,1005.56
2024-03-22T00:46:29.553Z,1005.59
2024-03-22T00:46:38.914Z,1005.58
2024-03-22T00:46:48.950Z,1005.58
2024-03-22T00:47:08.914Z,1005.54
2024-03-22T00:47:19.026Z,1005.59
2024-03-22T00:47:28.916Z,1005.52
2024-03-22T00:47:38.927Z,1005.52
2024-03-22T00:47:48.946Z,1005.58
2024-03-22T00:47:58.938Z,1005.58
2024-03-22T00:48:08.937Z,1005.56
2024-03-22T00:48:18.942Z,1005.56
2024-03-22T00:48:38.914Z,1005.61
2024-03-22T00:48:48.916Z,1005.61
2024-03-22T00:48:58.937Z,1005.60
2024-03-22T00:49:08.908Z,1005.60
2024-03-22T00:49:18.928Z,1005.62
2024-03-22T00:49:28.920Z,1005.58
2024-03-22T00:49:48.930Z,1005.60
2024-03-22T00:49:58.920Z,1005.57
2024-03-22T00:50:08.931Z,1005.60
2024-03-22T00:50:18.964Z,1005.55
2024-03-22T00:50:28.985Z,1005.58
2024-03-22T00:50:38.948Z,1005.58
2024-03-22T00:50:58.913Z,1005.54
2024-03-22T00:51:08.912Z,1005.60
2024-03-22T00:51:18.899Z,1005.62
2024-03-22T00:51:28.917Z,1005.60
2024-03-22T00:51:38.946Z,1005.55
2024-03-22T00:51:48.937Z,1005.60
2024-03-22T00:51:58.941Z,1005.64
2024-03-22T00:52:08.941Z,1005.61
2024-03-22T00:52:28.930Z,1005.58
2024-03-22T00:52:38.937Z,1005.59
2024-03-22T00:52:48.944Z,1005.62
2024-03-22T00:52:58.901Z,1005.63
2024-03-22T00:53:08.951Z,1005.60
2024-03-22T00:53:19.576Z,1005.63
2024-03-22T00:53:38.977Z,1005.66
2024-03-22T00:53:48.902Z,1005.60
2024-03-22T00:53:58.938Z,1005.59
2024-03-22T00:54:08.885Z,1005.62
2024-03-22T00:54:18.916Z,1005.59
2024-03-22T00:54:28.910Z,1005.57
2024-03-22T00:54:48.889Z,1005.62
2024-03-22T00:54:58.914Z,1005.60
2024-03-22T00:55:08.882Z,1005.59
2024-03-22T00:55:18.892Z,1005.56
2024-03-22T00:55:28.916Z,1005.56
2024-03-22T00:55:39.751Z,1005.58
2024-03-22T00:55:48.905Z,1005.55
2024-03-22T00:55:58.891Z,1005.55
2024-03-22T00:56:08.878Z,1005.59
2024-03-22T00:56:19.540Z,1005.54
2024-03-22T00:56:29.567Z,1005.51
2024-03-22T00:56:48.909Z,1005.52
2024-03-22T00:56:58.905Z,1005.52
2024-03-22T00:57:08.896Z,1005.54
2024-03-22T00:57:19.047Z,1005.50
2024-03-22T00:57:28.863Z,1005.52
2024-03-22T00:57:38.891Z,1005.52
2024-03-22T00:57:58.862Z,1005.51
2024-03-22T00:58:08.891Z,1005.51
2024-03-22T00:58:18.919Z,1005.50
2024-03-22T00:58:28.886Z,1005.52
2024-03-22T00:58:38.886Z,1005.55
2024-03-22T00:58:48.929Z,1005.50
2024-03-22T00:58:58.867Z,1005.54
2024-03-22T00:59:18.900Z,1005.55
2024-03-22T00:59:28.874Z,1005.56
2024-03-22T00:59:38.875Z,1005.55
2024-03-22T00:59:48.867Z,1005.49
2024-03-22T00:59:58.877Z,1005.55
2024-03-22T01:00:08.881Z,1005.53
2024-03-22T01:00:18.968Z,1005.53
2024-03-22T01:00:28.923Z,1005.51
2024-03-22T01:00:48.933Z,1005.49
2024-03-22T01:00:58.993Z,1005.50
2024-03-22T01:01:08.864Z,1005.52
2024-03-22T01:01:18.868Z,1005.47
2024-03-22T01:01:28.851Z,1005.43
2024-03-22T01:01:39.553Z,1005.47
2024-03-22T01:01:58.883Z,1005.48
2024-03-22T01:02:08.878Z,1005.44
2024-03-22T01:02:18.856Z,1005.44
2024-03-22T01:02:28.873Z,1005.45
2024-03-22T01:02:38.865Z,1005.48
2024-03-22T01:02:48.884Z,1005.46
2024-03-22T01:03:08.915Z,1005.43
2024-03-22T01:03:18.882Z,1005.44
2024-03-22T01:03:28.857Z,1005.49
2024-03-22T01:03:38.840Z,1005.45
2024-03-22T01:03:48.847Z,1005.50
2024-03-22T01:03:58.856Z,1005.47
2024-03-22T01:04:18.853Z,1005.45
2024-03-22T01:04:28.875Z,1005.45
2024-03-22T01:04:38.855Z,1005.42
2024-03-22T01:04:48.972Z,1005.46
2024-03-22T01:04:58.973Z,1005.44
2024-03-22T01:05:08.869Z,1005.41
2024-03-22T01:05:28.852Z,1005.40
2024-03-22T01:05:38.861Z,1005.43
2024-03-22T01:05:48.829Z,1005.46
2024-03-22T01:05:58.948Z,1005.41
2024-03-22T01:06:08.872Z,1005.40
2024-03-22T01:06:18.903Z,1005.43
2024-03-22T01:06:38.840Z,1005.47
2024-03-22T01:06:48.846Z,1005.45
2024-03-22T01:06:58.868Z,1005.43
2024-03-22T01:07:08.932Z,1005.46
2024-03-22T01:07:18.865Z,1005.44
2024-03-22T01:07:28.846Z,1005.44
2024-03-22T01:07:52.011Z,1005.45
2024-03-22T01:07:58.846Z,1005.41
2024-03-22T01:08:08.822Z,1005.45
2024-03-22T01:08:18.839Z,1005.44
2024-03-22T01:08:28.832Z,1005.47
2024-03-22T01:08:38.874Z,1005.46
2024-03-22T01:08:59.554Z,1005.47
2024-03-22T01:09:08.833Z,1005.45
2024-03-22T01:09:18.842Z,1005.45
2024-03-22T01:09:28.817Z,1005.44
2024-03-22T01:09:38.811Z,1005.45
2024-03-22T01:09:48.804Z,1005.48
2024-03-22T01:10:08.838Z,1005.42
2024-03-22T01:10:18.817Z,1005.43
2024-03-22T01:10:28.879Z,1005.42
2024-03-22T01:10:38.854Z,1005.41
2024-03-22T01:10:48.878Z,1005.48
2024-03-22T01:10:58.889Z,1005.44
2024-03-22T01:11:09.151Z,1005.43
2024-03-22T01:11:28.804Z,1005.46
2024-03-22T01:11:38.829Z,1005.47
2024-03-22T01:11:48.835Z,1005.44
2024-03-22T01:11:58.847Z,1005.42
2024-03-22T01:12:08.802Z,1005.43
2024-03-22T01:12:18.815Z,1005.45
2024-03-22T01:12:28.820Z,1005.43
2024-03-22T01:12:49.653Z,1005.42
2024-03-22T01:12:58.805Z,1005.40
2024-03-22T01:13:08.791Z,1005.41
2024-03-22T01:13:18.824Z,1005.40
2024-03-22T01:13:29.568Z,1005.46
2024-03-22T01:13:38.801Z,1005.40
2024-03-22T01:13:58.808Z,1005.45
2024-03-22T01:14:08.787Z,1005.42
2024-03-22T01:14:18.791Z,1005.44
2024-03-22T01:14:28.869Z,1005.41
2024-03-22T01:14:38.874Z,1005.41
2024-03-22T01:14:48.792Z,1005.41
2024-03-22T01:15:08.788Z,1005.46
2024-03-22T01:15:18.814Z,1005.45
2024-03-22T01:15:28.797Z,1005.47
2024-03-22T01:15:38.818Z,1005.43
2024-03-22T01:15:48.794Z,1005.43
2024-03-22T01:15:58.786Z,1005.45
2024-03-22T01:16:18.844Z,1005.45
2024-03-22T01:16:28.840Z,1005.45
2024-03-22T01:16:38.795Z,1005.46
2024-03-22T01:16:48.779Z,1005.44
2024-03-22T01:16:58.804Z,1005.44
2024-03-22T01:17:08.779Z,1005.40
2024-03-22T01:17:28.867Z,1005.42
2024-03-22T01:17:38.840Z,1005.45
2024-03-22T01:17:48.798Z,1005.43
2024-03-22T01:17:58.769Z,1005.41
2024-03-22T01:18:08.770Z,1005.44
2024-03-22T01:18:18.877Z,1005.43
2024-03-22T01:18:28.853Z,1005.38
2024-03-22T01:18:48.790Z,1005.41
2024-03-22T01:18:58.770Z,1005.39
2024-03-22T01:19:08.784Z,1005.39
2024-03-22T01:19:18.764Z,1005.37
2024-03-22T01:19:28.806Z,1005.39
2024-03-22T01:19:38.893Z,1005.38
2024-03-22T01:19:58.780Z,1005.39
2024-03-22T01:20:08.885Z,1005.39
2024-03-22T01:20:18.768Z,1005.34
2024-03-22T01:20:28.790Z,1005.35
2024-03-22T01:20:38.829Z,1005.36
2024-03-22T01:20:48.755Z,1005.35
2024-03-22T01:21:08.790Z,1005.30
2024-03-22T01:21:18.758Z,1005.34
2024-03-22T01:21:28.808Z,1005.34
2024-03-22T01:21:38.827Z,1005.32
2024-03-22T01:21:48.752Z,1005.31
2024-03-22T01:21:58.770Z,1005.34
2024-03-22T01:22:09.562Z,1005.31
2024-03-22T01:22:28.772Z,1005.34
2024-03-22T01:22:38.752Z,1005.29
2024-03-22T01:22:48.759Z,1005.32
2024-03-22T01:22:58.794Z,1005.29
2024-03-22T01:23:08.788Z,1005.27
2024-03-22T01:23:18.763Z,1005.33
2024-03-22T01:23:38.894Z,1005.34
2024-03-22T01:23:48.855Z,1005.29
2024-03-22T01:23:58.767Z,1005.31
2024-03-22T01:24:08.766Z,1005.26
2024-03-22T01:24:18.762Z,1005.25
2024-03-22T01:24:28.755Z,1005.27
2024-03-22T01:24:38.816Z,1005.31
2024-03-22T01:24:58.738Z,1005.27
2024-03-22T01:25:08.749Z,1005.27
2024-03-22T01:25:18.755Z,1005.27
2024-03-22T01:25:28.738Z,1005.26
2024-03-22T01:25:38.785Z,1005.27
2024-03-22T01:25:48.773Z,1005.26
2024-03-22T01:25:58.740Z,1005.24
2024-03-22T01:26:18.748Z,1005.27
2024-03-22T01:26:28.785Z,1005.24
2024-03-22T01:26:38.826Z,1005.28
2024-03-22T01:26:48.773Z,1005.24
2024-03-22T01:26:58.733Z,1005.23
2024-03-22T01:27:09.549Z,1005.25
2024-03-22T01:27:28.726Z,1005.27
2024-03-22T01:27:39.548Z,1005.25
2024-03-22T01:27:48.803Z,1005.24
2024-03-22T01:27:58.730Z,1005.27
2024-03-22T01:28:08.726Z,1005.22
2024-03-22T01:28:18.725Z,1005.24
2024-03-22T01:28:38.736Z,1005.22
2024-03-22T01:28:48.762Z,1005.21
2024-03-22T01:28:58.745Z,1005.21
2024-03-22T01:29:08.720Z,1005.18
2024-03-22T01:29:18.719Z,1005.19
2024-03-22T01:29:28.724Z,1005.22
2024-03-22T01:29:39.790Z,1005.15
2024-03-22T01:29:58.786Z,1005.18
2024-03-22T01:30:08.884Z,1005.17
2024-03-22T01:30:18.737Z,1005.16
2024-03-22T01:30:28.715Z,1005.20
2024-03-22T01:30:38.729Z,1005.15
2024-03-22T01:30:48.708Z,1005.15
2024-03-22T01:31:08.723Z,1005.19
2024-03-22T01:31:18.723Z,1005.18
2024-03-22T01:31:28.780Z,1005.19
2024-03-22T01:31:38.718Z,1005.16
2024-03-22T01:31:48.790Z,1005.18
2024-03-22T01:31:59.566Z,1005.13
2024-03-22T01:32:18.702Z,1005.13
2024-03-22T01:32:28.729Z,1005.11
2024-03-22T01:32:38.711Z,1005.10
2024-03-22T01:32:48.706Z,1005.12
2024-03-22T01:32:58.744Z,1005.16
2024-03-22T01:33:08.712Z,1005.12
2024-03-22T01:33:18.701Z,1005.13
2024-03-22T01:33:38.705Z,1005.14
2024-03-22T01:33:48.711Z,1005.14
2024-03-22T01:33:58.733Z,1005.13
2024-03-22T01:34:08.873Z,1005.14
2024-03-22T01:34:18.714Z,1005.13
2024-03-22T01:34:28.709Z,1005.15
2024-03-22T01:34:38.718Z,1005.15
2024-03-22T01:34:48.715Z,1005.13
2024-03-22T01:34:59.633Z,1005.09
2024-03-22T01:35:18.710Z,1005.12
2024-03-22T01:35:28.800Z,1005.14
2024-03-22T01:35:38.750Z,1005.09
2024-03-22T01:35:48.694Z,1005.05
2024-03-22T01:35:58.714Z,1005.06
2024-03-22T01:36:09.546Z,1005.08
2024-03-22T01:36:18.784Z,1005.12
2024-03-22T01:36:38.694Z,1005.09
2024-03-22T01:36:48.688Z,1005.08
2024-03-22T01:36:58.727Z,1005.08
2024-03-22T01:37:08.696Z,1005.10
2024-03-22T01:37:18.698Z,1005.07
2024-03-22T01:37:28.688Z,1005.08
2024-03-22T01:37:38.708Z,1005.04
2024-03-22T01:37:48.694Z,1005.10
2024-03-22T01:38:08.703Z,1005.12
2024-03-22T01:38:18.671Z,1005.08
2024-03-22T01:38:28.684Z,1005.06
2024-03-22T01:38:38.708Z,1005.08
2024-03-22T01:38:48.672Z,1005.06
2024-03-22T01:38:58.675Z,1005.07
2024-03-22T01:39:18.698Z,1005.08
2024-03-22T01:39:28.693Z,1005.03
2024-03-22T01:39:38.680Z,1005.04
2024-03-22T01:39:48.837Z,1005.05
2024-03-22T01:39:59.672Z,1005.03
2024-03-22T01:40:08.678Z,1005.06
2024-03-22T01:40:18.714Z,1005.03
2024-03-22T01:40:30.836Z,1005.07
2024-03-22T01:40:38.704Z,1005.08
2024-03-22T01:40:58.733Z,1005.06
2024-03-22T01:41:08.662Z,1005.05
2024-03-22T01:41:18.659Z,1005.05
2024-03-22T01:41:28.736Z,1005.00
2024-03-22T01:41:38.677Z,1005.04
2024-03-22T01:41:48.660Z,1005.06
2024-03-22T01:42:08.727Z,1004.99
2024-03-22T01:42:19.574Z,1005.07
2024-03-22T01:42:28.740Z,1005.05
2024-03-22T01:42:38.671Z,1005.04
2024-03-22T01:42:48.680Z,1005.07
2024-03-22T01:42:58.693Z,1005.04
2024-03-22T01:43:18.666Z,1005.08
2024-03-22T01:43:28.649Z,1005.06
2024-03-22T01:43:38.700Z,1005.07
2024-03-22T01:43:48.687Z,1005.05
2024-03-22T01:43:58.646Z,1005.05
2024-03-22T01:44:08.658Z,1005.08
2024-03-22T01:44:18.681Z,1005.08
2024-03-22T01:44:28.668Z,1005.08
2024-03-22T01:44:48.669Z,1005.07
2024-03-22T01:44:58.755Z,1005.09
2024-03-22T01:45:08.643Z,1005.10
2024-03-22T01:45:18.678Z,1005.08
2024-03-22T01:45:28.648Z,1005.09
2024-03-22T01:45:38.664Z,1005.08
2024-03-22T01:45:48.693Z,1005.11
2024-03-22T01:46:08.648Z,1005.07
2024-03-22T01:46:18.676Z,1005.12
2024-03-22T01:46:28.649Z,1005.11
2024-03-22T01:46:39.573Z,1005.10
2024-03-22T01:46:48.637Z,1005.11
2024-03-22T01:46:58.640Z,1005.09
2024-03-22T01:47:08.654Z,1005.07
2024-03-22T01:47:18.696Z,1005.07
2024-03-22T01:47:38.717Z,1005.12
2024-03-22T01:47:48.651Z,1005.07
2024-03-22T01:47:58.634Z,1005.07
2024-03-22T01:48:08.713Z,1005.09
2024-03-22T01:48:18.643Z,1005.10
2024-03-22T01:48:28.633Z,1005.08
2024-03-22T01:48:38.691Z,1005.04
2024-03-22T01:48:58.634Z,1005.06
2024-03-22T01:49:08.704Z,1005.06
2024-03-22T01:49:18.628Z,1005.05
2024-03-22T01:49:28.642Z,1005.07
2024-03-22T01:49:38.646Z,1005.05
2024-03-22T01:49:48.654Z,1005.03
2024-03-22T01:50:08.663Z,1004.98
2024-03-22T01:50:18.621Z,1005.04
2024-03-22T01:50:28.647Z,1004.97
2024-03-22T01:50:38.718Z,1004.99
2024-03-22T01:50:49.563Z,1004.96
2024-03-22T01:50:58.671Z,1004.98
2024-03-22T01:51:18.634Z,1005.00
2024-03-22T01:51:28.675Z,1004.98
2024-03-22T01:51:38.648Z,1004.95
2024-03-22T01:51:48.636Z,1005.02
2024-03-22T01:51:58.752Z,1004.99
2024-03-22T01:52:08.664Z,1004.97
2024-03-22T01:52:18.634Z,1004.96
2024-03-22T01:52:28.703Z,1004.96
2024-03-22T01:52:48.685Z,1004.97
2024-03-22T01:52:58.631Z,1004.98
2024-03-22T01:53:08.714Z,1004.92
2024-03-22T01:53:18.612Z,1004.98
2024-03-22T01:53:28.612Z,1004.99
2024-03-22T01:53:38.629Z,1004.99
2024-03-22T01:53:58.667Z,1004.98
2024-03-22T01:54:08.602Z,1004.97
2024-03-22T01:54:18.608Z,1004.98
2024-03-22T01:54:28.600Z,1004.99
2024-03-22T01:54:38.607Z,1005.00
2024-03-22T01:54:48.637Z,1005.00
2024-03-22T01:55:08.823Z,1005.03
2024-03-22T01:55:18.610Z,1004.96
2024-03-22T01:55:28.597Z,1004.97
2024-03-22T01:55:38.620Z,1005.00
2024-03-22T01:55:48.591Z,1005.00
2024-03-22T01:55:58.599Z,1005.01
2024-03-22T01:56:18.776Z,1004.96
2024-03-22T01:56:28.601Z,1004.95
2024-03-22T01:56:38.692Z,1004.95
2024-03-22T01:56:48.645Z,1004.96
2024-03-22T01:56:58.639Z,1004.89
2024-03-22T01:57:08.620Z,1004.94
2024-03-22T01:57:28.594Z,1004.91
2024-03-22T01:57:38.824Z,1004.91
2024-03-22T01:57:48.591Z,1004.85
2024-03-22T01:57:58.595Z,1004.91
2024-03-22T01:58:08.669Z,1004.88
2024-03-22T01:58:18.594Z,1004.86
2024-03-22T01:58:28.602Z,1004.85
2024-03-22T01:58:38.808Z,1004.86
2024-03-22T01:58:59.624Z,1004.87
2024-03-22T01:59:08.668Z,1004.85
2024-03-22T01:59:18.597Z,1004.86
2024-03-22T01:59:28.623Z,1004.87
2024-03-22T01:59:38.670Z,1004.86
2024-03-22T01:59:48.679Z,1004.84
2024-03-22T02:00:08.588Z,1004.89
2024-03-22T02:00:19.605Z,1004.85
2024-03-22T02:00:29.563Z,1004.89
2024-03-22T02:00:38.578Z,1004.85
2024-03-22T02:00:48.580Z,1004.83
2024-03-22T02:00:58.591Z,1004.88
2024-03-22T02:01:18.568Z,1004.89
2024-03-22T02:01:28.591Z,1004.88
2024-03-22T02:01:38.618Z,1004.84
2024-03-22T02:01:48.615Z,1004.87
2024-03-22T02:01:58.568Z,1004.87
2024-03-22T02:02:08.577Z,1004.87
2024-03-22T02:02:18.574Z,1004.87
2024-03-22T02:02:28.641Z,1004.86
2024-03-22T02:02:38.594Z,1004.83
2024-03-22T02:02:48.627Z,1004.88
2024-03-22T02:02:58.601Z,1004.80
2024-03-22T02:03:11.684Z,1004.85
2024-03-22T02:03:28.562Z,1004.86
2024-03-22T02:03:38.575Z,1004.88
2024-03-22T02:03:48.570Z,1004.86
2024-03-22T02:03:59.085Z,1004.85
2024-03-22T02:04:08.555Z,1004.86
2024-03-22T02:04:18.583Z,1004.83
2024-03-22T02:04:29.076Z,1004.83
2024-03-22T02:04:48.553Z,1004.78
2024-03-22T02:04:58.560Z,1004.79
2024-03-22T02:05:08.730Z,1004.77
2024-03-22T02:05:18.603Z,1004.81
2024-03-22T02:05:28.549Z,1004.79
2024-03-22T02:05:38.604Z,1004.78
2024-03-22T02:05:58.578Z,1004.79
2024-03-22T02:06:08.559Z,1004.76
2024-03-22T02:06:18.568Z,1004.75
2024-03-22T02:06:28.553Z,1004.77
2024-03-22T02:06:38.573Z,1004.77
2024-03-22T02:06:48.540Z,1004.77
2024-03-22T02:07:08.570Z,1004.75
2024-03-22T02:07:18.568Z,1004.74
2024-03-22T02:07:28.565Z,1004.79
2024-03-22T02:07:39.071Z,1004.73
2024-03-22T02:07:48.538Z,1004.74
2024-03-22T02:07:58.641Z,1004.77
2024-03-22T02:08:18.556Z,1004.79
2024-03-22T02:08:28.549Z,1004.72
2024-03-22T02:08:38.592Z,1004.77
2024-03-22T02:08:48.533Z,1004.75
2024-03-22T02:08:58.552Z,1004.81
2024-03-22T02:09:09.060Z,1004.79
2024-03-22T02:09:18.538Z,1004.77
2024-03-22T02:09:29.137Z,1004.79
2024-03-22T02:09:48.544Z,1004.82
2024-03-22T02:09:58.577Z,1004.79
2024-03-22T02:10:09.098Z,1004.82
2024-03-22T02:10:18.549Z,1004.82
2024-03-22T02:10:28.564Z,1004.78
2024-03-22T02:10:38.538Z,1004.84
2024-03-22T02:10:48.561Z,1004.84
2024-03-22T02:10:58.576Z,1004.80
2024-03-22T02:11:18.556Z,1004.83
2024-03-22T02:11:28.565Z,1004.82
2024-03-22T02:11:38.533Z,1004.80
2024-03-22T02:11:48.735Z,1004.83
2024-03-22T02:11:58.550Z,1004.80
2024-03-22T02:12:08.538Z,1004.83
2024-03-22T02:12:28.556Z,1004.82
2024-03-22T02:12:38.525Z,1004.79
2024-03-22T02:12:48.552Z,1004.79
2024-03-22T02:12:58.514Z,1004.77
2024-03-22T02:13:08.587Z,1004.80
2024-03-22T02:13:18.674Z,1004.82
2024-03-22T02:13:29.084Z,1004.76
2024-03-22T02:13:38.675Z,1004.78
2024-03-22T02:13:58.510Z,1004.72
2024-03-22T02:14:08.523Z,1004.72
2024-03-22T02:14:18.581Z,1004.73
2024-03-22T02:14:29.091Z,1004.67
2024-03-22T02:14:38.553Z,1004.70
2024-03-22T02:14:48.511Z,1004.72
2024-03-22T02:14:58.509Z,1004.70
2024-03-22T02:15:08.542Z,1004.73
2024-03-22T02:15:28.513Z,1004.67
2024-03-22T02:15:39.069Z,1004.65
2024-03-22T02:15:48.509Z,1004.65
2024-03-22T02:15:58.511Z,1004.67
2024-03-22T02:16:09.071Z,1004.68
2024-03-22T02:16:18.507Z,1004.68
2024-03-22T02:16:38.505Z,1004.72
2024-03-22T02:16:48.507Z,1004.71
2024-03-22T02:16:58.514Z,1004.69
2024-03-22T02:17:08.743Z,1004.69
2024-03-22T02:17:18.504Z,1004.69
2024-03-22T02:17:28.532Z,1004.70
2024-03-22T02:17:38.604Z,1004.68
2024-03-22T02:17:48.557Z,1004.70
2024-03-22T02:17:58.516Z,1004.70
2024-03-22T02:18:18.541Z,1004.71
2024-03-22T02:18:28.518Z,1004.68
2024-03-22T02:18:38.487Z,1004.69
2024-03-22T02:18:48.494Z,1004.71
2024-03-22T02:18:58.542Z,1004.68